Terminal Aerodrome Forecast
Issued by NWS

Home | Current Version | Previous Version | Graphics & Text | Print | Product List | Glossary On
Versions: 1 2 3 4 5 6 7 8 9 10 11 12 13 14 15 16 17 18 19 20 21 22 23 24 25
000
FTUS42 KMHX 260800 AAA
TAFOAJ
TAF AMD
KOAJ 260842Z 2609/2706 00000KT P6SM OVC030
      TEMPO 2609/2612 4SM BR BKN010
     FM261300 26004KT P6SM SCT030
     FM261700 27006KT P6SM BKN040
     FM262300 20005KT P6SM SCT040
      AMD LTD TO CLD VIS AND WIND=

USA.gov is the U.S. government's official web portal to all federal, state and local government web resources and services.